Aérodrome :
LOGIN :

S'inscrire | Disclaimer

   EN    FR    IT 

 










Légende :    VFR   VFR Marginal   IFR   IFR Intensif   IFR Très Intensif
Visi : 
Plafond : 
>= 8 km
>= 3000ft
5 à 8 km
1000 à 3000 ft
1500m à 5 km
500 à 1000 ft
800 à 1500m
200 à 500 ft
< 800m
< 200 ft
Symboles :   Orages  Brouillard  Fortes neiges  Fortes précipitations  Vent > 20 kt
SIGMETs :   Divers  Orages  Givrage  Turbulence  Onde Orograph.  Cendres Volcan.






- Altitude de l'aérodrome : 291 ft
- Code IATA : ORY


LFPO - Paris-Orly

DERNIER METAR :
  • 230130Z AUTO 23010KT 9999 SCT015 OVC041 19/16 Q1019 TEMPO 4000 -RA BKN009

METARs EXPIRÉS :
  • 230100Z AUTO 22009KT 9999 BKN046 OVC052 19/16 Q1020 BECMG BKN012
  • 230030Z AUTO 22007KT 190V250 CAVOK 19/16 Q1020 BECMG BKN012
  • 230000Z AUTO 23008KT CAVOK 19/16 Q1020 BECMG BKN012
  • 222330Z AUTO 20006KT CAVOK 19/16 Q1020 BECMG BKN012
  • 222300Z AUTO 22006KT CAVOK 19/16 Q1020 NOSIG
  • 222230Z AUTO 23008KT CAVOK 19/16 Q1020 NOSIG
  • 222200Z AUTO 23006KT 200V260 CAVOK 20/16 Q1020 NOSIG
  • 222130Z AUTO 21007KT 9999 FEW029 20/15 Q1020 NOSIG
  • 222100Z AUTO 23006KT CAVOK 20/15 Q1020 NOSIG

TAF TAF LFPO
Valide du 23 à 00h jusqu'au 24 à 06h UTC


222300Z 2300/2406 23006KT 9999 SCT040
BECMG 2301/2303 BKN012
PROB40
TEMPO 2303/2309 4000 -RA BKN009
BECMG 2309/2310 BKN020
TEMPO 2310/2320 31010G20KT
ATIS : +33 1 49 75 65 80



MET'MAP, la Météo Aéronautique d'un coup d'oeil ! - Copyright ORBIFLY Décembre 2007 - Disclaimer

ORBIFLY MET'MAP TEAM :

Programmation & Développement : Alexandra Zaïnal
Sur une idée originale de : Baudouin d'Aumeries
Soutien technique & logistique : Manuel Goepfert
Assistance : Marc-Olivier Méhu




SOURCES & CREDITS :

   NOAA